createdAt,value
2023-04-15T00:00:52.183Z,62.98
2023-04-15T00:01:52.235Z,65.33
2023-04-15T00:02:52.250Z,64.07
2023-04-15T00:03:52.261Z,66.73
2023-04-15T00:04:52.201Z,63.42
2023-04-15T00:05:52.111Z,63.23
2023-04-15T00:06:52.134Z,63.92
2023-04-15T00:07:52.094Z,64.84
2023-04-15T00:08:52.104Z,65.53
2023-04-15T00:09:52.088Z,65.31
2023-04-15T00:11:23.991Z,65.16
2023-04-15T00:11:52.082Z,65.24
2023-04-15T00:12:52.047Z,64.15
2023-04-15T00:13:52.057Z,64.90
2023-04-15T00:14:52.032Z,64.66
2023-04-15T00:15:52.023Z,65.23
2023-04-15T00:16:52.045Z,64.04
2023-04-15T00:17:52.035Z,66.62
2023-04-15T00:18:51.993Z,66.49
2023-04-15T00:19:51.991Z,67.18
2023-04-15T00:20:51.983Z,66.26
2023-04-15T00:21:52.024Z,66.58
2023-04-15T00:22:51.950Z,67.73
2023-04-15T00:23:51.947Z,67.30
2023-04-15T00:24:51.930Z,66.79
2023-04-15T00:25:51.931Z,67.31
2023-04-15T00:26:51.923Z,67.03
2023-04-15T00:27:52.903Z,67.23
2023-04-15T00:28:51.904Z,66.81
2023-04-15T00:29:51.882Z,66.48
2023-04-15T00:30:51.926Z,66.13
2023-04-15T00:31:51.893Z,64.99
2023-04-15T00:32:51.865Z,66.92
2023-04-15T00:33:51.854Z,66.97
2023-04-15T00:34:51.833Z,66.08
2023-04-15T00:35:51.836Z,63.96
2023-04-15T00:36:51.852Z,66.94
2023-04-15T00:37:51.791Z,65.26
2023-04-15T00:38:51.796Z,65.96
2023-04-15T00:39:51.775Z,66.92
2023-04-15T00:40:51.773Z,66.38
2023-04-15T00:41:51.773Z,65.30
2023-04-15T00:42:51.798Z,64.87
2023-04-15T00:43:51.738Z,65.60
2023-04-15T00:44:52.744Z,62.67
2023-04-15T00:45:51.839Z,62.79
2023-04-15T00:46:51.755Z,61.96
2023-04-15T00:47:51.902Z,63.46
2023-04-15T00:48:51.694Z,63.06
2023-04-15T00:49:51.680Z,63.25
2023-04-15T00:50:51.673Z,65.53
2023-04-15T00:51:51.690Z,62.12
2023-04-15T00:52:51.649Z,65.83
2023-04-15T00:53:51.642Z,66.04
2023-04-15T00:54:51.667Z,65.97
2023-04-15T00:55:51.610Z,67.10
2023-04-15T00:56:52.630Z,65.31
2023-04-15T00:57:51.613Z,67.17
2023-04-15T00:58:51.581Z,66.80
2023-04-15T00:59:51.606Z,66.16
2023-04-15T01:00:51.591Z,67.93
2023-04-15T01:01:51.659Z,64.41
2023-04-15T01:02:51.614Z,66.26
2023-04-15T01:03:51.633Z,66.29
2023-04-15T01:04:51.587Z,65.95
2023-04-15T01:05:51.523Z,66.91
2023-04-15T01:06:51.568Z,68.46
2023-04-15T01:07:51.504Z,68.21
2023-04-15T01:08:51.497Z,66.86
2023-04-15T01:09:51.488Z,68.34
2023-04-15T01:10:51.466Z,68.51
2023-04-15T01:11:51.479Z,65.21
2023-04-15T01:12:51.447Z,65.71
2023-04-15T01:13:51.434Z,65.81
2023-04-15T01:14:51.426Z,67.23
2023-04-15T01:15:51.426Z,66.84
2023-04-15T01:16:51.422Z,66.95
2023-04-15T01:17:51.448Z,66.46
2023-04-15T01:18:51.381Z,67.40
2023-04-15T01:19:51.380Z,67.81
2023-04-15T01:20:51.366Z,67.17
2023-04-15T01:21:51.382Z,64.48
2023-04-15T01:22:51.376Z,66.34
2023-04-15T01:23:51.335Z,66.09
2023-04-15T01:24:51.335Z,67.05
2023-04-15T01:25:51.312Z,67.30
2023-04-15T01:26:51.338Z,66.14
2023-04-15T01:27:51.312Z,66.84
2023-04-15T01:28:51.300Z,67.07
2023-04-15T01:29:51.277Z,66.11
2023-04-15T01:30:51.270Z,67.36
2023-04-15T01:31:51.389Z,65.66
2023-04-15T01:32:51.275Z,65.48
2023-04-15T01:33:51.241Z,65.02
2023-04-15T01:34:51.234Z,65.73
2023-04-15T01:35:51.237Z,64.64
2023-04-15T01:36:51.283Z,66.16
2023-04-15T01:37:51.228Z,65.87
2023-04-15T01:38:51.191Z,64.37
2023-04-15T01:39:51.173Z,66.37
2023-04-15T01:40:51.175Z,64.95
2023-04-15T01:41:51.184Z,64.18
2023-04-15T01:42:51.154Z,64.85
2023-04-15T01:43:51.152Z,65.64
2023-04-15T01:44:51.121Z,65.15
2023-04-15T01:45:52.125Z,66.37
2023-04-15T01:46:51.118Z,66.63
2023-04-15T01:47:51.170Z,68.81
2023-04-15T01:48:51.098Z,64.75
2023-04-15T01:49:51.081Z,66.62
2023-04-15T01:50:51.068Z,67.73
2023-04-15T01:51:52.068Z,64.17
2023-04-15T01:52:51.086Z,65.42
2023-04-15T01:53:51.049Z,63.87
2023-04-15T01:54:51.035Z,66.59
2023-04-15T01:55:51.026Z,66.23
2023-04-15T01:56:51.016Z,63.78
2023-04-15T01:57:51.054Z,63.89
2023-04-15T01:58:51.005Z,66.15
2023-04-15T01:59:50.989Z,68.19
2023-04-15T02:00:51.020Z,65.15
2023-04-15T02:01:50.985Z,64.90
2023-04-15T02:02:51.033Z,63.28
2023-04-15T02:03:51.086Z,64.75
2023-04-15T02:04:50.947Z,63.29
2023-04-15T02:05:50.915Z,66.04
2023-04-15T02:06:50.913Z,64.74
2023-04-15T02:07:50.924Z,66.29
2023-04-15T02:08:50.892Z,64.64
2023-04-15T02:09:50.898Z,64.88
2023-04-15T02:10:50.878Z,61.89
2023-04-15T02:11:50.870Z,65.00
2023-04-15T02:12:50.875Z,65.66
2023-04-15T02:13:50.848Z,64.69
2023-04-15T02:14:50.847Z,64.03
2023-04-15T02:15:50.826Z,63.08
2023-04-15T02:16:50.910Z,64.42
2023-04-15T02:17:50.974Z,62.40
2023-04-15T02:18:50.797Z,63.83
2023-04-15T02:19:50.785Z,62.88
2023-04-15T02:20:50.773Z,63.27
2023-04-15T02:21:50.778Z,62.69
2023-04-15T02:22:50.777Z,63.94
2023-04-15T02:23:53.566Z,65.14
2023-04-15T02:24:50.739Z,65.17
2023-04-15T02:25:53.871Z,63.58
2023-04-15T02:26:50.710Z,64.51
2023-04-15T02:27:51.724Z,65.05
2023-04-15T02:28:50.689Z,64.08
2023-04-15T02:29:50.684Z,64.09
2023-04-15T02:30:50.679Z,63.81
2023-04-15T02:31:50.758Z,63.72
2023-04-15T02:32:50.741Z,64.81
2023-04-15T02:33:50.641Z,62.52
2023-04-15T02:34:50.631Z,60.97
2023-04-15T02:35:50.615Z,63.36
2023-04-15T02:36:50.620Z,63.60
2023-04-15T02:37:50.627Z,63.92
2023-04-15T02:38:50.596Z,65.05
2023-04-15T02:39:50.576Z,64.40
2023-04-15T02:40:50.575Z,64.13
2023-04-15T02:41:50.565Z,63.61
2023-04-15T02:42:50.566Z,64.02
2023-04-15T02:43:50.539Z,62.62
2023-04-15T02:44:50.555Z,62.10
2023-04-15T02:45:50.565Z,62.00
2023-04-15T02:46:50.505Z,64.80
2023-04-15T02:47:50.542Z,62.92
2023-04-15T02:48:50.513Z,63.62
2023-04-15T02:49:50.474Z,62.20
2023-04-15T02:50:50.478Z,62.16
2023-04-15T02:51:50.456Z,60.50
2023-04-15T02:52:50.473Z,61.34
2023-04-15T02:53:50.449Z,60.56
2023-04-15T02:54:50.425Z,61.38
2023-04-15T02:55:50.418Z,61.31
2023-04-15T02:56:50.409Z,61.92
2023-04-15T02:57:50.420Z,61.05
2023-04-15T02:58:50.390Z,62.35
2023-04-15T02:59:50.377Z,62.03
2023-04-15T03:00:50.368Z,60.89
2023-04-15T03:01:50.417Z,61.00
2023-04-15T03:02:50.514Z,63.11
2023-04-15T03:03:50.455Z,62.99
2023-04-15T03:04:50.350Z,61.76
2023-04-15T03:05:50.308Z,62.63
2023-04-15T03:06:50.304Z,63.66
2023-04-15T03:07:50.321Z,62.94
2023-04-15T03:08:50.289Z,63.09
2023-04-15T03:09:50.268Z,62.43
2023-04-15T03:10:50.265Z,63.03
2023-04-15T03:11:50.252Z,61.47
2023-04-15T03:12:50.264Z,60.63
2023-04-15T03:13:50.272Z,62.26
2023-04-15T03:14:50.249Z,62.55
2023-04-15T03:15:50.254Z,63.72
2023-04-15T03:16:50.201Z,62.11
2023-04-15T03:17:50.228Z,65.29
2023-04-15T03:18:50.177Z,63.55
2023-04-15T03:19:50.162Z,63.84
2023-04-15T03:20:50.167Z,62.23
2023-04-15T03:21:50.142Z,62.58
2023-04-15T03:22:50.221Z,63.00
2023-04-15T03:23:50.131Z,66.20
2023-04-15T03:24:50.108Z,64.44
2023-04-15T03:25:50.108Z,65.39
2023-04-15T03:26:50.109Z,65.58
2023-04-15T03:27:50.119Z,63.88
2023-04-15T03:28:50.078Z,62.47
2023-04-15T03:29:50.048Z,64.34
2023-04-15T03:30:50.081Z,64.37
2023-04-15T03:31:50.043Z,65.76
2023-04-15T03:32:50.081Z,66.96
2023-04-15T03:33:50.030Z,65.74
2023-04-15T03:34:50.010Z,66.38
2023-04-15T03:35:49.993Z,66.61
2023-04-15T03:36:49.991Z,66.13
2023-04-15T03:37:50.008Z,66.55
2023-04-15T03:38:49.958Z,66.21
2023-04-15T03:39:49.957Z,65.89
2023-04-15T03:40:49.942Z,66.52
2023-04-15T03:41:49.936Z,67.40
2023-04-15T03:42:49.934Z,67.32
2023-04-15T03:43:49.903Z,66.64
2023-04-15T03:44:49.890Z,67.31
2023-04-15T03:45:49.985Z,67.34
2023-04-15T03:46:50.037Z,67.26
2023-04-15T03:47:49.932Z,68.58
2023-04-15T03:48:49.855Z,68.72
2023-04-15T03:49:49.828Z,68.80
2023-04-15T03:50:50.825Z,67.62
2023-04-15T03:51:49.820Z,67.07
2023-04-15T03:52:51.197Z,68.78
2023-04-15T03:53:50.789Z,68.68
2023-04-15T03:54:50.785Z,69.04
2023-04-15T03:55:49.816Z,70.56
2023-04-15T03:56:49.758Z,69.80
2023-04-15T03:57:49.777Z,69.25
2023-04-15T03:58:49.756Z,67.98
2023-04-15T03:59:49.736Z,69.93
2023-04-15T04:00:49.711Z,66.55
2023-04-15T04:01:49.783Z,68.63
2023-04-15T04:02:49.893Z,68.85
2023-04-15T04:03:49.995Z,69.89
2023-04-15T04:04:49.714Z,70.90
2023-04-15T04:05:49.671Z,69.45
2023-04-15T04:06:49.634Z,70.44
2023-04-15T04:07:49.702Z,68.49
2023-04-15T04:08:49.620Z,69.17
2023-04-15T04:09:49.616Z,68.36
2023-04-15T04:10:49.595Z,70.11
2023-04-15T04:11:49.583Z,68.36
2023-04-15T04:12:49.606Z,68.12
2023-04-15T04:13:49.558Z,68.56
2023-04-15T04:14:49.556Z,68.28
2023-04-15T04:15:49.581Z,69.29
2023-04-15T04:16:49.595Z,67.54
2023-04-15T04:17:49.591Z,68.29
2023-04-15T04:18:49.513Z,68.16
2023-04-15T04:19:49.507Z,70.75
2023-04-15T04:20:49.487Z,69.85
2023-04-15T04:21:49.468Z,70.17
2023-04-15T04:22:49.515Z,69.76
2023-04-15T04:23:49.459Z,68.37
2023-04-15T04:24:49.451Z,68.72
2023-04-15T04:25:49.429Z,69.25
2023-04-15T04:26:49.432Z,71.82
2023-04-15T04:27:49.438Z,70.71
2023-04-15T04:28:49.399Z,70.78
2023-04-15T04:29:49.386Z,70.78
2023-04-15T04:30:49.368Z,69.23
2023-04-15T04:31:49.392Z,70.05
2023-04-15T04:32:49.409Z,70.23
2023-04-15T04:33:49.334Z,70.36
2023-04-15T04:34:49.325Z,69.79
2023-04-15T04:35:49.324Z,70.93
2023-04-15T04:36:49.308Z,72.36
2023-04-15T04:37:49.332Z,69.39
2023-04-15T04:38:49.281Z,70.26
2023-04-15T04:39:49.279Z,70.86
2023-04-15T04:40:49.256Z,70.14
2023-04-15T04:41:49.247Z,70.26
2023-04-15T04:42:49.285Z,71.03
2023-04-15T04:43:49.225Z,70.69
2023-04-15T04:44:49.229Z,70.17
2023-04-15T04:45:49.206Z,70.95
2023-04-15T04:46:49.187Z,70.11
2023-04-15T04:47:49.233Z,70.17
2023-04-15T04:48:49.159Z,70.61
2023-04-15T04:49:49.162Z,71.24
2023-04-15T04:50:49.146Z,70.17
2023-04-15T04:51:49.155Z,70.04
2023-04-15T04:52:49.171Z,70.29
2023-04-15T04:53:49.125Z,69.83
2023-04-15T04:54:49.093Z,69.34
2023-04-15T04:55:49.083Z,71.22
2023-04-15T04:56:49.074Z,69.65
2023-04-15T04:57:49.081Z,69.08
2023-04-15T04:58:49.053Z,69.56
2023-04-15T04:59:49.046Z,69.90
2023-04-15T05:00:49.067Z,71.17
2023-04-15T05:01:49.039Z,71.47
2023-04-15T05:02:49.111Z,69.22
2023-04-15T05:03:49.050Z,69.58
2023-04-15T05:04:48.984Z,69.80
2023-04-15T05:05:48.974Z,68.94
2023-04-15T05:06:48.990Z,68.62
2023-04-15T05:07:48.971Z,69.95
2023-04-15T05:08:48.945Z,68.27
2023-04-15T05:09:48.930Z,67.60
2023-04-15T05:10:48.918Z,69.17
2023-04-15T05:11:48.917Z,70.13
2023-04-15T05:12:48.940Z,70.34
2023-04-15T05:13:48.886Z,69.22
2023-04-15T05:14:48.879Z,69.78
2023-04-15T05:15:48.921Z,69.96
2023-04-15T05:16:48.863Z,70.22
2023-04-15T05:17:48.905Z,70.87
2023-04-15T05:18:48.835Z,70.18
2023-04-15T05:19:48.823Z,71.50
2023-04-15T05:20:48.812Z,70.25
2023-04-15T05:21:48.806Z,71.36
2023-04-15T05:22:48.838Z,71.69
2023-04-15T05:23:48.794Z,69.81
2023-04-15T05:24:48.778Z,70.09
2023-04-15T05:25:48.764Z,70.41
2023-04-15T05:26:48.762Z,72.07
2023-04-15T05:27:48.758Z,70.41
2023-04-15T05:28:48.734Z,70.49
2023-04-15T05:29:48.729Z,69.72
2023-04-15T05:30:48.811Z,70.79
2023-04-15T05:31:48.711Z,70.75
2023-04-15T05:32:48.728Z,70.49
2023-04-15T05:33:48.682Z,71.37
2023-04-15T05:34:48.711Z,68.69
2023-04-15T05:35:48.668Z,70.08
2023-04-15T05:36:48.658Z,70.38
2023-04-15T05:37:48.699Z,69.98
2023-04-15T05:38:48.632Z,70.86
2023-04-15T05:39:48.618Z,70.70
2023-04-15T05:40:48.615Z,71.37
2023-04-15T05:41:48.595Z,70.49
2023-04-15T05:42:48.610Z,68.98
2023-04-15T05:43:48.591Z,69.43
2023-04-15T05:44:48.618Z,70.53
2023-04-15T05:45:49.579Z,72.05
2023-04-15T05:46:48.548Z,69.99
2023-04-15T05:47:48.728Z,69.90
2023-04-15T05:48:48.523Z,70.08
2023-04-15T05:49:48.515Z,70.32
2023-04-15T05:50:48.534Z,69.84
2023-04-15T05:51:48.506Z,71.86
2023-04-15T05:52:48.529Z,70.64
2023-04-15T05:53:48.473Z,69.47
2023-04-15T05:54:48.475Z,69.79
2023-04-15T05:55:48.458Z,70.60
2023-04-15T05:56:48.453Z,71.60
2023-04-15T05:57:48.437Z,71.25
2023-04-15T05:58:48.458Z,70.84
2023-04-15T05:59:48.427Z,70.23
2023-04-15T06:00:48.416Z,69.76
2023-04-15T06:01:48.430Z,70.50
2023-04-15T06:02:48.514Z,71.73
2023-04-15T06:03:48.495Z,71.10
2023-04-15T06:04:48.406Z,70.50
2023-04-15T06:05:48.358Z,69.93
2023-04-15T06:06:48.368Z,69.43
2023-04-15T06:07:48.816Z,69.09
2023-04-15T06:08:49.345Z,70.42
2023-04-15T06:09:48.333Z,69.67
2023-04-15T06:13:03.542Z,71.10
2023-04-15T06:14:03.519Z,70.00
2023-04-15T06:15:03.507Z,71.32
2023-04-15T06:16:03.503Z,70.82
2023-04-15T06:17:03.491Z,71.34
2023-04-15T06:18:03.493Z,71.22
2023-04-15T06:19:03.517Z,69.44
2023-04-15T06:20:03.461Z,70.99
2023-04-15T06:21:03.441Z,69.96
2023-04-15T06:22:03.447Z,70.18
2023-04-15T06:23:03.433Z,70.18
2023-04-15T06:24:04.530Z,70.98
2023-04-15T06:25:04.515Z,70.82
2023-04-15T06:26:04.514Z,70.77
2023-04-15T06:27:04.508Z,72.09
2023-04-15T06:28:04.511Z,71.57
2023-04-15T06:29:05.487Z,71.08
2023-04-15T06:30:04.469Z,70.56
2023-04-15T06:31:04.474Z,70.17
2023-04-15T06:32:04.470Z,70.43
2023-04-15T06:33:04.494Z,70.98
2023-04-15T06:34:04.429Z,69.14
2023-04-15T06:35:04.436Z,70.55
2023-04-15T06:36:04.408Z,69.99
2023-04-15T06:37:06.192Z,69.59
2023-04-15T06:38:04.402Z,71.17
2023-04-15T06:39:04.520Z,71.08
2023-04-15T06:40:04.377Z,71.51
2023-04-15T06:41:04.400Z,71.36
2023-04-15T06:42:04.368Z,70.62
2023-04-15T06:43:04.358Z,72.48
2023-04-15T06:44:04.336Z,69.20
2023-04-15T06:45:04.319Z,71.99
2023-04-15T06:46:04.360Z,72.05
2023-04-15T06:47:04.307Z,69.30
2023-04-15T06:48:04.307Z,71.03
2023-04-15T06:49:04.275Z,71.84
2023-04-15T06:50:04.263Z,72.01
2023-04-15T06:51:04.255Z,70.89
2023-04-15T06:52:04.267Z,70.16
2023-04-15T06:53:04.261Z,70.01
2023-04-15T06:54:04.225Z,70.31
2023-04-15T06:55:04.222Z,69.65
2023-04-15T06:56:04.204Z,72.03
2023-04-15T06:57:04.212Z,71.46
2023-04-15T06:58:04.197Z,69.75
2023-04-15T06:59:04.185Z,72.87
2023-04-15T07:00:04.163Z,69.87
2023-04-15T07:01:04.226Z,71.80
2023-04-15T07:02:04.202Z,72.02
2023-04-15T07:03:04.208Z,71.48
2023-04-15T07:04:04.132Z,72.10
2023-04-15T07:05:04.111Z,70.84
2023-04-15T07:06:04.104Z,71.18
2023-04-15T07:07:04.087Z,70.97
2023-04-15T07:08:04.136Z,71.67
2023-04-15T07:09:04.321Z,73.09
2023-04-15T07:10:04.053Z,72.08
2023-04-15T07:11:04.064Z,71.17
2023-04-15T07:12:04.051Z,71.22
2023-04-15T07:13:04.050Z,71.89
2023-04-15T07:14:04.017Z,70.99
2023-04-15T07:15:04.007Z,72.43
2023-04-15T07:16:03.999Z,71.85
2023-04-15T07:17:04.004Z,70.28
2023-04-15T07:18:04.115Z,71.71
2023-04-15T07:19:04.135Z,71.48
2023-04-15T07:20:03.951Z,71.01
2023-04-15T07:21:03.952Z,71.22
2023-04-15T07:22:03.938Z,71.00
2023-04-15T07:23:03.927Z,72.25
2023-04-15T07:24:03.943Z,71.05
2023-04-15T07:25:03.909Z,69.41
2023-04-15T07:26:03.890Z,70.80
2023-04-15T07:27:03.882Z,72.29
2023-04-15T07:28:03.907Z,71.42
2023-04-15T07:29:04.252Z,71.76
2023-04-15T07:30:03.855Z,71.23
2023-04-15T07:31:03.896Z,71.59
2023-04-15T07:32:03.858Z,70.57
2023-04-15T07:33:03.922Z,69.91
2023-04-15T07:34:03.823Z,70.30
2023-04-15T07:35:03.809Z,71.58
2023-04-15T07:36:03.796Z,71.48
2023-04-15T07:37:03.784Z,71.75
2023-04-15T07:38:03.796Z,70.36
2023-04-15T07:39:04.035Z,71.26
2023-04-15T07:40:03.764Z,70.14
2023-04-15T07:41:03.743Z,71.55
2023-04-15T07:42:03.732Z,72.01
2023-04-15T07:43:03.768Z,72.37
2023-04-15T07:44:03.718Z,72.05
2023-04-15T07:45:03.722Z,72.26
2023-04-15T07:46:03.725Z,71.47
2023-04-15T07:47:03.695Z,70.28
2023-04-15T07:48:03.753Z,71.08
2023-04-15T07:49:03.989Z,70.13
2023-04-15T07:50:03.673Z,71.04
2023-04-15T07:51:03.655Z,71.25
2023-04-15T07:52:03.658Z,70.36
2023-04-15T07:53:03.653Z,71.56
2023-04-15T07:54:03.618Z,70.55
2023-04-15T07:55:03.605Z,70.86
2023-04-15T07:56:03.600Z,71.69
2023-04-15T07:57:03.585Z,71.16
2023-04-15T07:58:03.592Z,71.24
2023-04-15T07:59:03.843Z,70.47
2023-04-15T08:00:03.559Z,71.24
2023-04-15T08:01:03.549Z,70.40
2023-04-15T08:02:03.727Z,69.69
2023-04-15T08:03:03.704Z,69.82
2023-04-15T08:04:03.784Z,70.03
2023-04-15T08:05:03.508Z,70.74
2023-04-15T08:06:03.510Z,70.14
2023-04-15T08:07:03.509Z,70.16
2023-04-15T08:08:03.496Z,69.13
2023-04-15T08:09:03.834Z,69.11
2023-04-15T08:10:03.451Z,70.75
2023-04-15T08:11:03.452Z,68.92
2023-04-15T08:12:03.428Z,68.69
2023-04-15T08:13:03.431Z,70.78
2023-04-15T08:14:03.408Z,70.24
2023-04-15T08:15:03.406Z,70.58
2023-04-15T08:16:03.444Z,71.94
2023-04-15T08:17:03.379Z,71.94
2023-04-15T08:18:03.421Z,71.30
2023-04-15T08:19:03.582Z,69.85
2023-04-15T08:20:03.347Z,70.61
2023-04-15T08:21:03.335Z,70.88
2023-04-15T08:22:03.354Z,70.26
2023-04-15T08:23:03.356Z,70.36
2023-04-15T08:24:03.308Z,70.75
2023-04-15T08:25:03.311Z,71.22
2023-04-15T08:26:03.278Z,71.78
2023-04-15T08:27:03.278Z,72.25
2023-04-15T08:28:03.293Z,70.82
2023-04-15T08:29:03.469Z,70.58
2023-04-15T08:30:07.274Z,71.16
2023-04-15T08:31:04.275Z,71.68
2023-04-15T08:32:03.228Z,70.84
2023-04-15T08:33:03.250Z,71.73
2023-04-15T08:34:03.213Z,72.33
2023-04-15T08:35:03.202Z,71.83
2023-04-15T08:36:03.181Z,70.96
2023-04-15T08:37:03.184Z,71.13
2023-04-15T08:38:03.196Z,71.59
2023-04-15T08:39:03.383Z,71.14
2023-04-15T08:40:03.161Z,70.83
2023-04-15T08:41:03.143Z,70.15
2023-04-15T08:42:03.128Z,72.10
2023-04-15T08:43:03.148Z,71.45
2023-04-15T08:44:03.102Z,70.63
2023-04-15T08:45:03.167Z,70.83
2023-04-15T08:46:03.100Z,71.80
2023-04-15T08:47:03.310Z,71.34
2023-04-15T08:48:03.118Z,71.15
2023-04-15T08:49:03.248Z,71.26
2023-04-15T08:50:03.050Z,71.98
2023-04-15T08:51:03.073Z,71.43
2023-04-15T08:52:03.037Z,71.75
2023-04-15T08:53:03.035Z,72.06
2023-04-15T08:54:03.016Z,69.96
2023-04-15T08:55:03.013Z,71.24
2023-04-15T08:56:02.990Z,72.21
2023-04-15T08:57:02.990Z,71.66
2023-04-15T08:58:02.989Z,70.55
2023-04-15T08:59:03.146Z,70.82
2023-04-15T09:00:03.953Z,71.08
2023-04-15T09:01:04.059Z,72.08
2023-04-15T09:02:02.946Z,72.09
2023-04-15T09:03:02.991Z,72.15
2023-04-15T09:04:03.023Z,71.58
2023-04-15T09:05:02.895Z,71.13
2023-04-15T09:06:02.885Z,71.42
2023-04-15T09:07:02.874Z,72.28
2023-04-15T09:08:02.896Z,70.89
2023-04-15T09:09:03.148Z,71.28
2023-04-15T09:10:03.838Z,71.96
2023-04-15T09:11:02.834Z,71.71
2023-04-15T09:12:02.830Z,72.09
2023-04-15T09:13:02.842Z,71.13
2023-04-15T09:14:02.802Z,71.80
2023-04-15T09:15:02.793Z,71.79
2023-04-15T09:16:02.777Z,71.74
2023-04-15T09:17:02.806Z,72.10
2023-04-15T09:18:02.915Z,71.35
2023-04-15T09:19:02.836Z,70.88
2023-04-15T09:20:02.748Z,71.86
2023-04-15T09:21:02.732Z,70.75
2023-04-15T09:22:02.761Z,70.83
2023-04-15T09:23:02.714Z,70.68
2023-04-15T09:24:02.972Z,71.47
2023-04-15T09:25:02.711Z,72.39
2023-04-15T09:26:02.692Z,71.95
2023-04-15T09:27:02.700Z,71.93
2023-04-15T09:28:02.663Z,70.96
2023-04-15T09:29:02.673Z,72.48
2023-04-15T09:30:02.647Z,71.21
2023-04-15T09:31:02.711Z,72.04
2023-04-15T09:32:02.648Z,72.23
2023-04-15T09:33:02.668Z,72.17
2023-04-15T09:34:02.818Z,71.19
2023-04-15T09:35:02.625Z,71.42
2023-04-15T09:36:02.583Z,73.45
2023-04-15T09:37:03.173Z,72.74
2023-04-15T09:38:02.586Z,73.09
2023-04-15T09:39:02.559Z,72.34
2023-04-15T09:40:02.544Z,72.40
2023-04-15T09:41:02.546Z,73.14
2023-04-15T09:42:02.527Z,73.13
2023-04-15T09:43:02.532Z,73.59
2023-04-15T09:44:02.596Z,72.26
2023-04-15T09:45:02.495Z,71.88
2023-04-15T09:46:02.499Z,72.76
2023-04-15T09:47:02.494Z,71.98
2023-04-15T09:48:02.514Z,72.47
2023-04-15T09:49:02.495Z,71.12
2023-04-15T09:50:02.533Z,72.34
2023-04-15T09:51:02.435Z,71.87
2023-04-15T09:52:05.802Z,72.06
2023-04-15T09:53:03.444Z,71.59
2023-04-15T09:54:02.627Z,72.96
2023-04-15T09:55:02.396Z,72.56
2023-04-15T09:56:02.403Z,71.88
2023-04-15T09:57:02.393Z,72.63
2023-04-15T09:58:02.369Z,71.46
2023-04-15T09:59:02.359Z,72.14
2023-04-15T10:00:02.352Z,71.49
2023-04-15T10:01:02.372Z,72.31
2023-04-15T10:02:02.387Z,71.31
2023-04-15T10:03:02.442Z,71.38
2023-04-15T10:04:02.616Z,71.60
2023-04-15T10:05:02.386Z,71.40
2023-04-15T10:06:02.295Z,72.12
2023-04-15T10:07:02.285Z,71.81
2023-04-15T10:08:02.313Z,72.12
2023-04-15T10:09:02.272Z,72.77
2023-04-15T10:10:02.258Z,72.94
2023-04-15T10:11:02.334Z,72.78
2023-04-15T10:12:02.245Z,72.07
2023-04-15T10:13:02.262Z,72.09
2023-04-15T10:14:02.388Z,71.77
2023-04-15T10:15:02.197Z,72.14
2023-04-15T10:16:03.240Z,71.93
2023-04-15T10:17:02.194Z,72.30
2023-04-15T10:18:02.276Z,73.24
2023-04-15T10:19:02.183Z,72.34
2023-04-15T10:20:02.182Z,72.88
2023-04-15T10:21:02.234Z,72.24
2023-04-15T10:22:02.145Z,72.57
2023-04-15T10:23:02.145Z,72.99
2023-04-15T10:24:02.418Z,72.81
2023-04-15T10:25:02.134Z,72.35
2023-04-15T10:26:02.114Z,72.15
2023-04-15T10:27:02.078Z,72.42
2023-04-15T10:28:02.101Z,72.02
2023-04-15T10:29:02.054Z,73.11
2023-04-15T10:30:02.059Z,72.39
2023-04-15T10:31:02.073Z,72.71
2023-04-15T10:32:02.123Z,72.95
2023-04-15T10:33:02.192Z,71.76
2023-04-15T10:34:02.311Z,72.13
2023-04-15T10:35:02.036Z,73.19
2023-04-15T10:36:02.009Z,72.43
2023-04-15T10:37:02.000Z,72.75
2023-04-15T10:38:01.984Z,72.76
2023-04-15T10:39:01.988Z,71.85
2023-04-15T10:40:02.087Z,71.91
2023-04-15T10:41:01.953Z,72.01
2023-04-15T10:42:01.954Z,72.49
2023-04-15T10:43:01.950Z,72.77
2023-04-15T10:44:02.157Z,72.52
2023-04-15T10:45:01.969Z,72.03
2023-04-15T10:46:01.926Z,71.62
2023-04-15T10:47:01.889Z,72.77
2023-04-15T10:48:03.451Z,71.93
2023-04-15T10:49:02.865Z,73.40
2023-04-15T10:50:01.858Z,71.90
2023-04-15T10:51:01.841Z,72.33
2023-04-15T10:52:01.837Z,72.34
2023-04-15T10:53:01.860Z,73.01
2023-04-15T10:54:01.853Z,70.87
2023-04-15T10:55:01.888Z,71.36
2023-04-15T10:56:01.804Z,71.57
2023-04-15T10:57:01.809Z,71.53
2023-04-15T10:58:01.771Z,71.74
2023-04-15T10:59:01.760Z,72.26
2023-04-15T11:00:01.785Z,71.26
2023-04-15T11:01:01.746Z,72.76
2023-04-15T11:02:01.856Z,73.30
2023-04-15T11:03:01.892Z,72.39
2023-04-15T11:04:02.217Z,71.40
2023-04-15T11:05:01.704Z,72.37
2023-04-15T11:06:01.721Z,72.25
2023-04-15T11:07:01.682Z,74.89
2023-04-15T11:08:01.702Z,73.86
2023-04-15T11:09:01.683Z,73.18
2023-04-15T11:10:01.686Z,73.82
2023-04-15T11:11:01.648Z,73.06
2023-04-15T11:12:01.705Z,72.04
2023-04-15T11:13:01.645Z,72.36
2023-04-15T11:14:02.792Z,72.78
2023-04-15T11:15:01.659Z,73.64
2023-04-15T11:16:02.001Z,73.21
2023-04-15T11:17:01.592Z,72.41
2023-04-15T11:18:01.681Z,72.02
2023-04-15T11:19:01.597Z,73.32
2023-04-15T11:20:01.550Z,71.79
2023-04-15T11:21:01.561Z,73.27
2023-04-15T11:22:01.538Z,72.51
2023-04-15T11:23:14.334Z,73.66
2023-04-15T11:24:03.933Z,72.46
2023-04-15T11:25:01.489Z,71.99
2023-04-15T11:26:01.504Z,72.13
2023-04-15T11:27:01.487Z,72.72
2023-04-15T11:28:01.512Z,72.18
2023-04-15T11:29:01.606Z,72.81
2023-04-15T11:30:01.490Z,72.91
2023-04-15T11:31:01.438Z,72.75
2023-04-15T11:32:01.461Z,72.46
2023-04-15T11:33:01.507Z,72.42
2023-04-15T11:34:01.432Z,72.83
2023-04-15T11:35:01.469Z,71.56
2023-04-15T11:36:01.439Z,72.25
2023-04-15T11:37:01.394Z,73.53
2023-04-15T11:38:01.392Z,72.83
2023-04-15T11:39:01.374Z,72.68
2023-04-15T11:40:01.364Z,73.04
2023-04-15T11:41:01.350Z,72.44
2023-04-15T11:42:01.341Z,72.29
2023-04-15T11:43:01.393Z,73.37
2023-04-15T11:44:01.526Z,72.83
2023-04-15T11:45:01.299Z,73.37
2023-04-15T11:46:01.398Z,72.71
2023-04-15T11:47:01.276Z,72.57
2023-04-15T11:48:01.340Z,72.52
2023-04-15T11:49:01.316Z,72.73
2023-04-15T11:50:01.254Z,72.39
2023-04-15T11:51:01.255Z,72.31
2023-04-15T11:52:01.233Z,71.68
2023-04-15T11:53:01.243Z,72.52
2023-04-15T11:54:01.403Z,72.46
2023-04-15T11:55:01.197Z,72.24
2023-04-15T11:56:01.229Z,72.62
2023-04-15T11:57:01.171Z,71.52
2023-04-15T11:58:01.178Z,72.02
2023-04-15T11:59:01.172Z,72.11
2023-04-15T12:00:01.156Z,71.25
2023-04-15T12:01:01.174Z,72.40
2023-04-15T12:02:01.250Z,72.44
2023-04-15T12:03:01.238Z,72.62
2023-04-15T12:04:01.258Z,72.22
2023-04-15T12:05:01.127Z,72.57
2023-04-15T12:06:01.111Z,72.99
2023-04-15T12:07:01.080Z,72.36
2023-04-15T12:08:01.096Z,72.28
2023-04-15T12:09:01.088Z,72.44
2023-04-15T12:10:01.071Z,72.44
2023-04-15T12:11:01.046Z,72.64
2023-04-15T12:12:01.048Z,71.58
2023-04-15T12:13:01.078Z,72.25
2023-04-15T12:14:01.078Z,72.30
2023-04-15T12:15:01.001Z,72.52
2023-04-15T12:16:00.995Z,72.20
2023-04-15T12:17:01.151Z,73.11
2023-04-15T12:18:00.989Z,72.05
2023-04-15T12:19:00.965Z,71.95
2023-04-15T12:20:00.956Z,72.95
2023-04-15T12:21:00.944Z,71.26
2023-04-15T12:22:01.199Z,71.71
2023-04-15T12:23:00.933Z,70.97
2023-04-15T12:24:00.909Z,72.22
2023-04-15T12:25:00.922Z,73.22
2023-04-15T12:26:00.884Z,72.25
2023-04-15T12:27:00.873Z,72.72
2023-04-15T12:28:00.892Z,72.70
2023-04-15T12:29:00.851Z,73.15
2023-04-15T12:30:00.843Z,72.64
2023-04-15T12:31:00.836Z,72.42
2023-04-15T12:32:00.835Z,73.21
2023-04-15T12:33:00.891Z,73.82
2023-04-15T12:34:00.804Z,72.43
2023-04-15T12:35:00.802Z,71.94
2023-04-15T12:36:00.796Z,73.05
2023-04-15T12:37:00.770Z,73.00
2023-04-15T12:38:00.770Z,72.68
2023-04-15T12:39:00.774Z,72.10
2023-04-15T12:40:00.740Z,71.97
2023-04-15T12:41:00.725Z,71.96
2023-04-15T12:42:00.756Z,71.28
2023-04-15T12:43:00.739Z,71.87
2023-04-15T12:44:00.705Z,71.33
2023-04-15T12:45:00.710Z,71.64
2023-04-15T12:46:00.683Z,72.92
2023-04-15T12:47:00.763Z,72.70
2023-04-15T12:48:00.682Z,71.96
2023-04-15T12:49:00.691Z,72.54
2023-04-15T12:50:00.630Z,72.20
2023-04-15T12:51:00.636Z,72.42
2023-04-15T12:52:00.682Z,72.65
2023-04-15T12:53:00.632Z,72.59
2023-04-15T12:54:00.635Z,71.27
2023-04-15T12:55:00.594Z,71.60